sensor_id;sensor_type;location;lat;lon;timestamp;pressure;altitude;pressure_sealevel;temperature;humidity
79540;BME280;68991;52.122;5.406;2023-05-13T00:00:24;102310.53;;;19.46;67.04
79540;BME280;68991;52.122;5.406;2023-05-13T00:02:51;102309.63;;;19.46;67.18
79540;BME280;68991;52.122;5.406;2023-05-13T00:05:17;102303.31;;;19.45;67.08
79540;BME280;68991;52.122;5.406;2023-05-13T00:07:44;102307.91;;;19.45;67.07
79540;BME280;68991;52.122;5.406;2023-05-13T00:10:10;102312.47;;;19.44;67.17
79540;BME280;68991;52.122;5.406;2023-05-13T00:12:37;102308.00;;;19.43;66.99
79540;BME280;68991;52.122;5.406;2023-05-13T00:15:03;102308.00;;;19.43;67.04
79540;BME280;68991;52.122;5.406;2023-05-13T00:17:30;102307.09;;;19.43;67.08
79540;BME280;68991;52.122;5.406;2023-05-13T00:19:56;102300.84;;;19.41;67.13
79540;BME280;68991;52.122;5.406;2023-05-13T00:22:23;102301.78;;;19.41;67.09
79540;BME280;68991;52.122;5.406;2023-05-13T00:24:49;102300.84;;;19.41;67.07
79540;BME280;68991;52.122;5.406;2023-05-13T00:27:16;102299.97;;;19.40;67.17
79540;BME280;68991;52.122;5.406;2023-05-13T00:29:42;102308.25;;;19.38;67.19
79540;BME280;68991;52.122;5.406;2023-05-13T00:32:09;102301.91;;;19.38;66.94
79540;BME280;68991;52.122;5.406;2023-05-13T00:34:35;102301.06;;;19.37;67.06
79540;BME280;68991;52.122;5.406;2023-05-13T00:37:02;102300.25;;;19.35;67.14
79540;BME280;68991;52.122;5.406;2023-05-13T00:39:29;102302.09;;;19.35;66.87
79540;BME280;68991;52.122;5.406;2023-05-13T00:41:55;102303.94;;;19.34;66.97
79540;BME280;68991;52.122;5.406;2023-05-13T00:44:21;102303.09;;;19.34;67.14
79540;BME280;68991;52.122;5.406;2023-05-13T00:46:48;102295.88;;;19.33;66.89
79540;BME280;68991;52.122;5.406;2023-05-13T00:49:15;102304.06;;;19.33;66.91
79540;BME280;68991;52.122;5.406;2023-05-13T00:51:41;102302.28;;;19.32;66.84
79540;BME280;68991;52.122;5.406;2023-05-13T00:54:08;102305.03;;;19.32;66.98
79540;BME280;68991;52.122;5.406;2023-05-13T00:56:37;102301.41;;;19.31;66.98
79540;BME280;68991;52.122;5.406;2023-05-13T00:59:04;102295.09;;;19.31;66.66
79540;BME280;68991;52.122;5.406;2023-05-13T01:01:46;102300.53;;;19.31;66.92
79540;BME280;68991;52.122;5.406;2023-05-13T01:04:22;102298.81;;;19.30;66.90
79540;BME280;68991;52.122;5.406;2023-05-13T01:07:06;102298.88;;;19.28;66.91
79540;BME280;68991;52.122;5.406;2023-05-13T01:12:45;102298.00;;;19.28;66.53
79540;BME280;68991;52.122;5.406;2023-05-13T01:15:17;102299.00;;;19.27;66.78
79540;BME280;68991;52.122;5.406;2023-05-13T01:20:21;102297.25;;;19.26;66.77
79540;BME280;68991;52.122;5.406;2023-05-13T01:22:49;102297.25;;;19.26;66.69
79540;BME280;68991;52.122;5.406;2023-05-13T01:25:15;102294.59;;;19.24;66.73
79540;BME280;68991;52.122;5.406;2023-05-13T01:27:42;102299.16;;;19.24;66.73
79540;BME280;68991;52.122;5.406;2023-05-13T01:30:09;102287.41;;;19.23;66.66
79540;BME280;68991;52.122;5.406;2023-05-13T01:32:37;102292.88;;;19.23;66.69
79540;BME280;68991;52.122;5.406;2023-05-13T01:35:04;102295.69;;;19.22;66.46
79540;BME280;68991;52.122;5.406;2023-05-13T01:37:31;102288.47;;;19.21;66.53
79540;BME280;68991;52.122;5.406;2023-05-13T01:39:58;102293.03;;;19.20;66.57
79540;BME280;68991;52.122;5.406;2023-05-13T01:42:28;102283.13;;;19.19;66.47
79540;BME280;68991;52.122;5.406;2023-05-13T01:44:54;102290.41;;;19.19;66.48
79540;BME280;68991;52.122;5.406;2023-05-13T01:47:21;102291.38;;;19.18;66.51
79540;BME280;68991;52.122;5.406;2023-05-13T01:49:47;102292.25;;;19.18;66.53
79540;BME280;68991;52.122;5.406;2023-05-13T01:52:14;102286.03;;;19.16;66.49
79540;BME280;68991;52.122;5.406;2023-05-13T01:54:40;102288.78;;;19.16;66.39
79540;BME280;68991;52.122;5.406;2023-05-13T01:57:07;102293.34;;;19.16;66.43
79540;BME280;68991;52.122;5.406;2023-05-13T01:59:33;102295.19;;;19.15;66.64
79540;BME280;68991;52.122;5.406;2023-05-13T02:02:00;102301.59;;;19.14;66.33
79540;BME280;68991;52.122;5.406;2023-05-13T02:04:26;102293.53;;;19.13;66.31
79540;BME280;68991;52.122;5.406;2023-05-13T02:06:53;102301.72;;;19.13;66.33
79540;BME280;68991;52.122;5.406;2023-05-13T02:09:19;102297.22;;;19.12;66.32
79540;BME280;68991;52.122;5.406;2023-05-13T02:11:45;102298.19;;;19.11;66.38
79540;BME280;68991;52.122;5.406;2023-05-13T02:14:12;102300.91;;;19.11;66.39
79540;BME280;68991;52.122;5.406;2023-05-13T02:16:38;102293.81;;;19.08;66.20
79540;BME280;68991;52.122;5.406;2023-05-13T02:19:05;102295.59;;;19.09;66.35
79540;BME280;68991;52.122;5.406;2023-05-13T02:21:32;102300.16;;;19.09;66.49
79540;BME280;68991;52.122;5.406;2023-05-13T02:23:59;102292.94;;;19.08;66.30
79540;BME280;68991;52.122;5.406;2023-05-13T02:26:25;102295.66;;;19.08;66.40
79540;BME280;68991;52.122;5.406;2023-05-13T02:28:51;102295.66;;;19.08;66.60
79540;BME280;68991;52.122;5.406;2023-05-13T02:31:18;102301.19;;;19.06;66.40
79540;BME280;68991;52.122;5.406;2023-05-13T02:33:44;102297.63;;;19.06;66.10
79540;BME280;68991;52.122;5.406;2023-05-13T02:36:11;102299.47;;;19.05;66.34
79540;BME280;68991;52.122;5.406;2023-05-13T02:38:37;102298.59;;;19.05;66.41
79540;BME280;68991;52.122;5.406;2023-05-13T02:41:04;102297.78;;;19.03;66.46
79540;BME280;68991;52.122;5.406;2023-05-13T02:43:30;102295.06;;;19.03;66.37
79540;BME280;68991;52.122;5.406;2023-05-13T02:45:57;102292.44;;;19.01;66.29
79540;BME280;68991;52.122;5.406;2023-05-13T02:48:23;102289.72;;;19.01;66.28
79540;BME280;68991;52.122;5.406;2023-05-13T02:50:50;102295.25;;;19.00;65.85
79540;BME280;68991;52.122;5.406;2023-05-13T02:53:16;102293.53;;;18.99;66.87
79540;BME280;68991;52.122;5.406;2023-05-13T02:55:43;102291.75;;;18.98;66.40
79540;BME280;68991;52.122;5.406;2023-05-13T02:58:09;102293.69;;;18.96;66.33
79540;BME280;68991;52.122;5.406;2023-05-13T03:00:35;102290.00;;;18.97;66.26
79540;BME280;68991;52.122;5.406;2023-05-13T03:03:02;102290.00;;;18.97;66.32
79540;BME280;68991;52.122;5.406;2023-05-13T03:05:29;102286.50;;;18.95;66.21
79540;BME280;68991;52.122;5.406;2023-05-13T03:07:55;102286.50;;;18.95;66.23
79540;BME280;68991;52.122;5.406;2023-05-13T03:10:23;102285.69;;;18.93;66.11
79540;BME280;68991;52.122;5.406;2023-05-13T03:12:49;102282.97;;;18.93;66.26
79540;BME280;68991;52.122;5.406;2023-05-13T03:15:16;102285.81;;;18.91;66.02
79540;BME280;68991;52.122;5.406;2023-05-13T03:17:42;102294.88;;;18.92;66.09
79540;BME280;68991;52.122;5.406;2023-05-13T03:20:10;102282.19;;;18.91;66.24
79540;BME280;68991;52.122;5.406;2023-05-13T03:22:37;102284.03;;;18.90;66.23
79540;BME280;68991;52.122;5.406;2023-05-13T03:25:06;102284.13;;;18.88;66.17
79540;BME280;68991;52.122;5.406;2023-05-13T03:27:33;102288.72;;;18.88;66.41
79540;BME280;68991;52.122;5.406;2023-05-13T03:29:59;102287.94;;;18.86;66.19
79540;BME280;68991;52.122;5.406;2023-05-13T03:32:26;102294.25;;;18.86;66.21
79540;BME280;68991;52.122;5.406;2023-05-13T03:34:56;102292.50;;;18.85;66.18
79540;BME280;68991;52.122;5.406;2023-05-13T03:37:23;102296.09;;;18.86;66.09
79540;BME280;68991;52.122;5.406;2023-05-13T03:39:50;102298.94;;;18.84;66.09
79540;BME280;68991;52.122;5.406;2023-05-13T03:42:16;102300.78;;;18.84;65.97
79540;BME280;68991;52.122;5.406;2023-05-13T03:44:43;102308.06;;;18.83;66.09
79540;BME280;68991;52.122;5.406;2023-05-13T03:47:09;102308.06;;;18.83;66.07
79540;BME280;68991;52.122;5.406;2023-05-13T03:49:36;102303.59;;;18.82;66.06
79540;BME280;68991;52.122;5.406;2023-05-13T03:52:03;102303.69;;;18.81;66.14
79540;BME280;68991;52.122;5.406;2023-05-13T03:54:29;102302.81;;;18.80;65.80
79540;BME280;68991;52.122;5.406;2023-05-13T03:56:55;102305.63;;;18.79;66.16
79540;BME280;68991;52.122;5.406;2023-05-13T03:59:22;102298.34;;;18.79;66.09
79540;BME280;68991;52.122;5.406;2023-05-13T04:01:49;102304.75;;;18.78;66.28
79540;BME280;68991;52.122;5.406;2023-05-13T04:04:15;102307.56;;;18.77;66.11
79540;BME280;68991;52.122;5.406;2023-05-13T04:06:42;102311.19;;;18.77;66.12
79540;BME280;68991;52.122;5.406;2023-05-13T04:09:08;102311.25;;;18.76;66.08
79540;BME280;68991;52.122;5.406;2023-05-13T04:11:34;102307.66;;;18.75;66.29
79540;BME280;68991;52.122;5.406;2023-05-13T04:14:01;102317.59;;;18.76;65.85
79540;BME280;68991;52.122;5.406;2023-05-13T04:16:27;102311.34;;;18.74;66.04
79540;BME280;68991;52.122;5.406;2023-05-13T04:18:54;102315.94;;;18.74;65.96
79540;BME280;68991;52.122;5.406;2023-05-13T04:21:21;102312.34;;;18.73;66.05
79540;BME280;68991;52.122;5.406;2023-05-13T04:23:47;102311.44;;;18.73;65.89
79540;BME280;68991;52.122;5.406;2023-05-13T04:26:13;102314.19;;;18.73;66.14
79540;BME280;68991;52.122;5.406;2023-05-13T04:28:40;102313.28;;;18.72;66.14
79540;BME280;68991;52.122;5.406;2023-05-13T04:31:06;102318.75;;;18.72;66.09
79540;BME280;68991;52.122;5.406;2023-05-13T04:33:33;102326.03;;;18.72;66.12
79540;BME280;68991;52.122;5.406;2023-05-13T04:35:59;102323.31;;;18.72;66.19
79540;BME280;68991;52.122;5.406;2023-05-13T04:38:25;102331.41;;;18.73;66.15
79540;BME280;68991;52.122;5.406;2023-05-13T04:40:52;102331.41;;;18.73;66.32
79540;BME280;68991;52.122;5.406;2023-05-13T04:43:19;102332.28;;;18.74;65.99
79540;BME280;68991;52.122;5.406;2023-05-13T04:45:46;102340.34;;;18.75;66.21
79540;BME280;68991;52.122;5.406;2023-05-13T04:48:13;102334.91;;;18.75;66.31
79540;BME280;68991;52.122;5.406;2023-05-13T04:50:46;102339.38;;;18.76;66.45
79540;BME280;68991;52.122;5.406;2023-05-13T04:53:13;102342.13;;;18.76;66.24
79540;BME280;68991;52.122;5.406;2023-05-13T04:55:39;102338.44;;;18.77;66.18
79540;BME280;68991;52.122;5.406;2023-05-13T04:58:06;102341.16;;;18.77;66.43
79540;BME280;68991;52.122;5.406;2023-05-13T05:00:32;102341.16;;;18.77;66.43
79540;BME280;68991;52.122;5.406;2023-05-13T05:02:59;102344.72;;;18.78;66.27
79540;BME280;68991;52.122;5.406;2023-05-13T05:05:25;102350.09;;;18.79;65.98
79540;BME280;68991;52.122;5.406;2023-05-13T05:07:52;102351.94;;;18.79;66.17
79540;BME280;68991;52.122;5.406;2023-05-13T05:10:18;102351.94;;;18.79;66.01
79540;BME280;68991;52.122;5.406;2023-05-13T05:12:45;102357.31;;;18.80;66.03
79540;BME280;68991;52.122;5.406;2023-05-13T05:15:11;102352.81;;;18.79;65.98
79540;BME280;68991;52.122;5.406;2023-05-13T05:17:42;102356.50;;;18.78;65.87
79540;BME280;68991;52.122;5.406;2023-05-13T05:20:09;102351.94;;;18.79;65.93
79540;BME280;68991;52.122;5.406;2023-05-13T05:22:36;102353.72;;;18.80;65.50
79540;BME280;68991;52.122;5.406;2023-05-13T05:25:03;102350.09;;;18.79;65.32
79540;BME280;68991;52.122;5.406;2023-05-13T05:27:30;102355.56;;;18.79;65.45
79540;BME280;68991;52.122;5.406;2023-05-13T05:29:56;102355.47;;;18.81;65.55
79540;BME280;68991;52.122;5.406;2023-05-13T05:32:23;102359.03;;;18.81;65.53
79540;BME280;68991;52.122;5.406;2023-05-13T05:34:49;102361.69;;;18.83;65.50
79540;BME280;68991;52.122;5.406;2023-05-13T05:37:16;102355.34;;;18.82;65.33
79540;BME280;68991;52.122;5.406;2023-05-13T05:39:42;102361.69;;;18.83;65.35
79540;BME280;68991;52.122;5.406;2023-05-13T05:42:08;102369.00;;;18.82;65.11
79540;BME280;68991;52.122;5.406;2023-05-13T05:44:35;102360.81;;;18.82;65.18
79540;BME280;68991;52.122;5.406;2023-05-13T05:47:01;102361.69;;;18.83;65.32
79540;BME280;68991;52.122;5.406;2023-05-13T05:49:28;102366.19;;;18.84;65.28
79540;BME280;68991;52.122;5.406;2023-05-13T05:51:54;102364.41;;;18.83;65.13
79540;BME280;68991;52.122;5.406;2023-05-13T05:54:20;102364.41;;;18.83;65.08
79540;BME280;68991;52.122;5.406;2023-05-13T05:56:47;102368.91;;;18.84;65.10
79540;BME280;68991;52.122;5.406;2023-05-13T05:59:13;102371.63;;;18.84;65.00
79540;BME280;68991;52.122;5.406;2023-05-13T06:01:40;102377.97;;;18.84;64.79
79540;BME280;68991;52.122;5.406;2023-05-13T06:04:06;102376.09;;;18.85;64.96
79540;BME280;68991;52.122;5.406;2023-05-13T06:06:33;102374.25;;;18.85;64.94
79540;BME280;68991;52.122;5.406;2023-05-13T06:09:00;102368.78;;;18.85;64.91
79540;BME280;68991;52.122;5.406;2023-05-13T06:11:26;102371.53;;;18.85;64.92
79540;BME280;68991;52.122;5.406;2023-05-13T06:13:53;102369.69;;;18.86;64.95
79540;BME280;68991;52.122;5.406;2023-05-13T06:16:19;102375.13;;;18.86;64.48
79540;BME280;68991;52.122;5.406;2023-05-13T06:18:45;102373.28;;;18.86;64.92
79540;BME280;68991;52.122;5.406;2023-05-13T06:21:12;102373.28;;;18.86;64.80
79540;BME280;68991;52.122;5.406;2023-05-13T06:23:39;102368.72;;;18.87;64.80
79540;BME280;68991;52.122;5.406;2023-05-13T06:26:06;102369.59;;;18.87;64.80
79540;BME280;68991;52.122;5.406;2023-05-13T06:28:32;102368.72;;;18.87;64.64
79540;BME280;68991;52.122;5.406;2023-05-13T06:30:58;102368.59;;;18.88;64.41
79540;BME280;68991;52.122;5.406;2023-05-13T06:33:25;102369.50;;;18.89;64.76
79540;BME280;68991;52.122;5.406;2023-05-13T06:35:51;102368.59;;;18.88;64.66
79540;BME280;68991;52.122;5.406;2023-05-13T06:38:18;102368.59;;;18.88;64.45
79540;BME280;68991;52.122;5.406;2023-05-13T06:40:45;102376.78;;;18.88;64.68
79540;BME280;68991;52.122;5.406;2023-05-13T06:43:11;102369.50;;;18.89;64.59
79540;BME280;68991;52.122;5.406;2023-05-13T06:45:39;102372.22;;;18.89;64.33
79540;BME280;68991;52.122;5.406;2023-05-13T06:48:06;102380.31;;;18.91;64.42
79540;BME280;68991;52.122;5.406;2023-05-13T06:50:32;102369.41;;;18.91;64.54
79540;BME280;68991;52.122;5.406;2023-05-13T06:52:59;102373.91;;;18.92;64.47
79540;BME280;68991;52.122;5.406;2023-05-13T06:55:25;102373.91;;;18.92;64.37
79540;BME280;68991;52.122;5.406;2023-05-13T06:57:52;102372.91;;;18.93;64.81
79540;BME280;68991;52.122;5.406;2023-05-13T07:00:18;102370.19;;;18.93;64.44
79540;BME280;68991;52.122;5.406;2023-05-13T07:02:45;102377.41;;;18.94;64.46
79540;BME280;68991;52.122;5.406;2023-05-13T07:05:12;102378.28;;;18.94;64.49
79540;BME280;68991;52.122;5.406;2023-05-13T07:07:38;102375.44;;;18.96;64.41
79540;BME280;68991;52.122;5.406;2023-05-13T07:10:05;102371.88;;;18.95;64.34
79540;BME280;68991;52.122;5.406;2023-05-13T07:12:32;102376.31;;;18.96;64.24
79540;BME280;68991;52.122;5.406;2023-05-13T07:14:58;102370.88;;;18.96;64.67
79540;BME280;68991;52.122;5.406;2023-05-13T07:17:25;102360.84;;;18.97;64.21
79540;BME280;68991;52.122;5.406;2023-05-13T07:19:51;102359.97;;;18.96;64.16
79540;BME280;68991;52.122;5.406;2023-05-13T07:22:18;102365.34;;;18.98;63.95
79540;BME280;68991;52.122;5.406;2023-05-13T07:24:44;102370.78;;;18.98;64.26
79540;BME280;68991;52.122;5.406;2023-05-13T07:27:11;102366.13;;;19.00;64.13
79540;BME280;68991;52.122;5.406;2023-05-13T07:29:37;102360.66;;;19.00;64.09
79540;BME280;68991;52.122;5.406;2023-05-13T07:32:04;102366.03;;;19.01;64.06
79540;BME280;68991;52.122;5.406;2023-05-13T07:34:31;102366.03;;;19.01;63.88
79540;BME280;68991;52.122;5.406;2023-05-13T07:36:57;102369.66;;;19.02;64.16
79540;BME280;68991;52.122;5.406;2023-05-13T07:39:24;102368.56;;;19.04;63.96
79540;BME280;68991;52.122;5.406;2023-05-13T07:41:52;102367.69;;;19.04;64.09
79540;BME280;68991;52.122;5.406;2023-05-13T07:44:18;102371.22;;;19.06;63.94
79540;BME280;68991;52.122;5.406;2023-05-13T07:46:45;102373.84;;;19.07;63.92
79540;BME280;68991;52.122;5.406;2023-05-13T07:49:11;102370.16;;;19.08;63.76
79540;BME280;68991;52.122;5.406;2023-05-13T07:51:38;102377.38;;;19.09;63.89
79540;BME280;68991;52.122;5.406;2023-05-13T07:54:04;102375.41;;;19.11;63.69
79540;BME280;68991;52.122;5.406;2023-05-13T07:56:30;102367.16;;;19.13;63.91
79540;BME280;68991;52.122;5.406;2023-05-13T07:58:57;102371.59;;;19.14;63.97
79540;BME280;68991;52.122;5.406;2023-05-13T08:01:23;102374.25;;;19.15;63.73
79540;BME280;68991;52.122;5.406;2023-05-13T08:03:50;102374.13;;;19.17;63.58
79540;BME280;68991;52.122;5.406;2023-05-13T08:06:16;102374.06;;;19.18;63.40
79540;BME280;68991;52.122;5.406;2023-05-13T08:08:43;102368.59;;;19.18;63.25
79540;BME280;68991;52.122;5.406;2023-05-13T08:11:09;102369.50;;;19.19;63.45
79540;BME280;68991;52.122;5.406;2023-05-13T08:13:36;102386.63;;;19.21;63.30
79540;BME280;68991;52.122;5.406;2023-05-13T08:16:03;102372.03;;;19.22;63.41
79540;BME280;68991;52.122;5.406;2023-05-13T08:18:32;102374.56;;;19.25;63.41
79540;BME280;68991;52.122;5.406;2023-05-13T08:20:58;102370.88;;;19.26;63.42
79540;BME280;68991;52.122;5.406;2023-05-13T08:23:25;102367.19;;;19.27;63.29
79540;BME280;68991;52.122;5.406;2023-05-13T08:26:09;102359.75;;;19.29;63.24
79540;BME280;68991;52.122;5.406;2023-05-13T08:28:36;102365.13;;;19.30;63.08
79540;BME280;68991;52.122;5.406;2023-05-13T08:31:03;102368.63;;;19.32;63.08
79540;BME280;68991;52.122;5.406;2023-05-13T08:33:30;102368.56;;;19.34;62.84
79540;BME280;68991;52.122;5.406;2023-05-13T08:35:58;102362.09;;;19.35;62.80
79540;BME280;68991;52.122;5.406;2023-05-13T08:38:25;102369.25;;;19.37;62.83
79540;BME280;68991;52.122;5.406;2023-05-13T08:40:51;102367.22;;;19.41;62.77
79540;BME280;68991;52.122;5.406;2023-05-13T08:43:18;102368.00;;;19.43;62.52
79540;BME280;68991;52.122;5.406;2023-05-13T08:45:46;102367.81;;;19.46;62.56
79540;BME280;68991;52.122;5.406;2023-05-13T08:48:14;102364.09;;;19.47;62.44
79540;BME280;68991;52.122;5.406;2023-05-13T08:50:41;102366.63;;;19.50;62.51
79540;BME280;68991;52.122;5.406;2023-05-13T08:53:10;102361.88;;;19.54;62.50
79540;BME280;68991;52.122;5.406;2023-05-13T08:55:38;102374.44;;;19.56;62.19
79540;BME280;68991;52.122;5.406;2023-05-13T08:58:06;102358.84;;;19.58;62.07
79540;BME280;68991;52.122;5.406;2023-05-13T09:00:33;102365.00;;;19.62;61.98
79540;BME280;68991;52.122;5.406;2023-05-13T09:03:00;102359.41;;;19.63;62.04
79540;BME280;68991;52.122;5.406;2023-05-13T09:05:27;102359.22;;;19.66;62.08
79540;BME280;68991;52.122;5.406;2023-05-13T09:07:54;102355.44;;;19.69;62.04
79540;BME280;68991;52.122;5.406;2023-05-13T09:10:20;102367.03;;;19.72;62.08
79540;BME280;68991;52.122;5.406;2023-05-13T09:12:54;102358.66;;;19.75;61.94
79540;BME280;68991;52.122;5.406;2023-05-13T09:15:25;102361.94;;;19.80;61.97
79540;BME280;68991;52.122;5.406;2023-05-13T09:18:01;102359.06;;;19.83;61.72
79540;BME280;68991;52.122;5.406;2023-05-13T09:20:28;102360.69;;;19.86;61.66
79540;BME280;68991;52.122;5.406;2023-05-13T09:23:01;102354.06;;;19.90;61.51
79540;BME280;68991;52.122;5.406;2023-05-13T09:25:29;102360.22;;;19.94;61.50
79540;BME280;68991;52.122;5.406;2023-05-13T09:27:57;102360.00;;;19.97;61.38
79540;BME280;68991;52.122;5.406;2023-05-13T09:30:26;102360.69;;;20.00;61.35
79540;BME280;68991;52.122;5.406;2023-05-13T09:35:30;102362.91;;;20.08;61.03
79540;BME280;68991;52.122;5.406;2023-05-13T09:37:57;102357.25;;;20.11;61.27
79540;BME280;68991;52.122;5.406;2023-05-13T09:40:23;102352.47;;;20.14;60.97
79540;BME280;68991;52.122;5.406;2023-05-13T09:42:50;102359.56;;;20.17;60.99
79540;BME280;68991;52.122;5.406;2023-05-13T09:45:22;102353.81;;;20.21;61.18
79540;BME280;68991;52.122;5.406;2023-05-13T09:47:50;102357.22;;;20.25;61.01
79540;BME280;68991;52.122;5.406;2023-05-13T09:50:19;102357.81;;;20.30;61.19
79540;BME280;68991;52.122;5.406;2023-05-13T09:52:48;102356.63;;;20.34;60.80
79540;BME280;68991;52.122;5.406;2023-05-13T09:55:14;102363.66;;;20.38;60.51
79540;BME280;68991;52.122;5.406;2023-05-13T09:57:41;102363.34;;;20.43;60.76
79540;BME280;68991;52.122;5.406;2023-05-13T10:00:07;102357.66;;;20.46;61.08
79540;BME280;68991;52.122;5.406;2023-05-13T10:02:55;102358.34;;;20.49;60.79
79540;BME280;68991;52.122;5.406;2023-05-13T10:05:22;102355.31;;;20.54;60.64
79540;BME280;68991;52.122;5.406;2023-05-13T10:07:49;102362.31;;;20.58;60.17
79540;BME280;68991;52.122;5.406;2023-05-13T10:10:15;102353.03;;;20.60;60.44
79540;BME280;68991;52.122;5.406;2023-05-13T10:12:42;102357.31;;;20.64;60.16
79540;BME280;68991;52.122;5.406;2023-05-13T10:15:09;102352.41;;;20.69;60.14
79540;BME280;68991;52.122;5.406;2023-05-13T10:17:36;102348.59;;;20.72;60.13
79540;BME280;68991;52.122;5.406;2023-05-13T10:20:04;102347.41;;;20.76;60.26
79540;BME280;68991;52.122;5.406;2023-05-13T10:22:31;102344.47;;;20.79;60.14
79540;BME280;68991;52.122;5.406;2023-05-13T10:25:01;102330.47;;;20.83;60.09
79540;BME280;68991;52.122;5.406;2023-05-13T10:27:31;102334.84;;;20.86;60.10
79540;BME280;68991;52.122;5.406;2023-05-13T10:30:00;102324.47;;;20.91;59.83
79540;BME280;68991;52.122;5.406;2023-05-13T10:32:29;102331.59;;;20.94;59.96
79540;BME280;68991;52.122;5.406;2023-05-13T10:35:01;102327.63;;;20.98;59.83
79540;BME280;68991;52.122;5.406;2023-05-13T10:45:37;102323.00;;;21.12;59.02
79540;BME280;68991;52.122;5.406;2023-05-13T10:48:10;102316.31;;;21.16;59.08
79540;BME280;68991;52.122;5.406;2023-05-13T10:50:37;102314.16;;;21.21;59.00
79540;BME280;68991;52.122;5.406;2023-05-13T10:53:08;102314.81;;;21.25;58.91
79540;BME280;68991;52.122;5.406;2023-05-13T10:55:42;102310.88;;;21.29;58.70
79540;BME280;68991;52.122;5.406;2023-05-13T10:58:13;102305.19;;;21.32;58.53
79540;BME280;68991;52.122;5.406;2023-05-13T11:00:42;102304.75;;;21.38;58.41
79540;BME280;68991;52.122;5.406;2023-05-13T11:03:09;102311.75;;;21.42;58.61
79540;BME280;68991;52.122;5.406;2023-05-13T11:05:40;102310.19;;;21.51;58.68
79540;BME280;68991;52.122;5.406;2023-05-13T11:08:08;102305.59;;;21.64;58.11
79540;BME280;68991;52.122;5.406;2023-05-13T11:10:35;102304.25;;;21.69;57.72
79540;BME280;68991;52.122;5.406;2023-05-13T11:15:52;102304.81;;;21.74;57.66
79540;BME280;68991;52.122;5.406;2023-05-13T11:18:28;102304.69;;;21.76;57.70
79540;BME280;68991;52.122;5.406;2023-05-13T11:21:01;102299.09;;;21.77;57.68
79540;BME280;68991;52.122;5.406;2023-05-13T11:23:32;102298.88;;;21.80;57.30
79540;BME280;68991;52.122;5.406;2023-05-13T11:26:13;102297.66;;;21.84;57.84
79540;BME280;68991;52.122;5.406;2023-05-13T11:29:04;102299.19;;;21.89;57.78
79540;BME280;68991;52.122;5.406;2023-05-13T11:31:42;102295.03;;;21.96;57.73
79540;BME280;68991;52.122;5.406;2023-05-13T11:34:12;102292.16;;;22.10;57.09
79540;BME280;68991;52.122;5.406;2023-05-13T11:36:41;102295.88;;;22.56;55.66
79540;BME280;68991;52.122;5.406;2023-05-13T11:39:10;102285.50;;;23.29;53.86
79540;BME280;68991;52.122;5.406;2023-05-13T11:41:40;102287.88;;;24.55;50.94
79540;BME280;68991;52.122;5.406;2023-05-13T11:44:07;102282.84;;;25.63;47.99
79540;BME280;68991;52.122;5.406;2023-05-13T11:46:33;102281.94;;;26.43;46.14
79540;BME280;68991;52.122;5.406;2023-05-13T11:49:00;102274.66;;;26.99;44.92
79540;BME280;68991;52.122;5.406;2023-05-13T11:51:26;102272.50;;;27.40;43.33
79540;BME280;68991;52.122;5.406;2023-05-13T11:54:03;102263.25;;;27.68;43.65
79540;BME280;68991;52.122;5.406;2023-05-13T11:56:29;102261.03;;;27.99;41.59
79540;BME280;68991;52.122;5.406;2023-05-13T11:59:11;102259.63;;;28.22;42.19
79540;BME280;68991;52.122;5.406;2023-05-13T12:01:39;102251.66;;;28.54;40.81
79540;BME280;68991;52.122;5.406;2023-05-13T12:04:06;102258.53;;;28.86;39.66
79540;BME280;68991;52.122;5.406;2023-05-13T12:06:33;102261.25;;;29.03;39.43
79540;BME280;68991;52.122;5.406;2023-05-13T12:09:04;102247.78;;;29.26;39.23
79540;BME280;68991;52.122;5.406;2023-05-13T12:11:31;102252.38;;;29.43;38.65
79540;BME280;68991;52.122;5.406;2023-05-13T12:13:58;102251.38;;;29.52;37.75
79540;BME280;68991;52.122;5.406;2023-05-13T12:16:25;102247.47;;;29.37;38.11
79540;BME280;68991;52.122;5.406;2023-05-13T12:18:58;102244.38;;;28.71;39.64
79540;BME280;68991;52.122;5.406;2023-05-13T12:21:29;102247.19;;;27.44;41.64
79540;BME280;68991;52.122;5.406;2023-05-13T12:23:56;102261.00;;;26.40;44.33
79540;BME280;68991;52.122;5.406;2023-05-13T12:26:24;102256.50;;;25.80;45.81
79540;BME280;68991;52.122;5.406;2023-05-13T12:28:58;102250.78;;;25.32;46.81
79540;BME280;68991;52.122;5.406;2023-05-13T12:31:24;102247.47;;;25.08;47.83
79540;BME280;68991;52.122;5.406;2023-05-13T12:33:51;102252.13;;;24.87;48.19
79540;BME280;68991;52.122;5.406;2023-05-13T12:36:19;102243.28;;;24.72;48.60
79540;BME280;68991;52.122;5.406;2023-05-13T12:39:19;102253.59;;;24.59;49.51
79540;BME280;68991;52.122;5.406;2023-05-13T12:41:50;102246.88;;;24.52;49.32
79540;BME280;68991;52.122;5.406;2023-05-13T12:44:19;102267.53;;;24.46;49.53
79540;BME280;68991;52.122;5.406;2023-05-13T12:46:53;102255.44;;;24.38;49.71
79540;BME280;68991;52.122;5.406;2023-05-13T12:49:20;102260.72;;;24.30;49.90
79540;BME280;68991;52.122;5.406;2023-05-13T12:51:47;102255.00;;;24.21;50.11
79540;BME280;68991;52.122;5.406;2023-05-13T12:54:15;102254.50;;;24.16;50.12
79540;BME280;68991;52.122;5.406;2023-05-13T12:56:41;102240.25;;;24.11;50.65
79540;BME280;68991;52.122;5.406;2023-05-13T12:59:08;102242.50;;;24.06;50.56
79540;BME280;68991;52.122;5.406;2023-05-13T13:01:35;102245.91;;;23.99;50.91
79540;BME280;68991;52.122;5.406;2023-05-13T13:04:02;102243.69;;;23.93;51.19
79540;BME280;68991;52.122;5.406;2023-05-13T13:06:29;102245.81;;;23.89;50.96
79540;BME280;68991;52.122;5.406;2023-05-13T13:08:56;102247.47;;;23.81;51.22
79540;BME280;68991;52.122;5.406;2023-05-13T13:11:22;102247.84;;;23.76;51.19